createdAt,value
2023-04-19T00:00:09.256Z,81.50
2023-04-19T00:03:14.488Z,81.00
2023-04-19T00:06:17.522Z,80.66
2023-04-19T00:09:20.140Z,80.16
2023-04-19T00:12:22.690Z,80.70
2023-04-19T00:15:25.535Z,81.56
2023-04-19T00:18:29.504Z,80.71
2023-04-19T00:21:32.332Z,80.40
2023-04-19T00:24:35.350Z,80.73
2023-04-19T00:27:37.951Z,80.61
2023-04-19T00:30:40.536Z,80.94
2023-04-19T00:33:44.477Z,81.10
2023-04-19T00:36:47.094Z,80.61
2023-04-19T00:39:49.734Z,80.73
2023-04-19T00:42:52.391Z,81.12
2023-04-19T00:45:55.280Z,80.46
2023-04-19T00:48:59.392Z,81.14
2023-04-19T00:52:02.037Z,80.87
2023-04-19T00:55:06.218Z,80.37
2023-04-19T00:58:09.718Z,81.02
2023-04-19T01:01:12.474Z,80.26
2023-04-19T01:04:17.481Z,79.54
2023-04-19T01:07:20.705Z,79.89
2023-04-19T01:10:23.425Z,79.70
2023-04-19T01:13:27.845Z,79.48
2023-04-19T01:16:30.551Z,79.20
2023-04-19T01:19:36.333Z,79.46
2023-04-19T01:22:40.343Z,79.47
2023-04-19T01:25:43.037Z,80.26
2023-04-19T01:28:45.757Z,79.75
2023-04-19T01:31:51.534Z,79.34
2023-04-19T01:34:54.246Z,80.35
2023-04-19T01:37:58.246Z,79.54
2023-04-19T01:41:00.812Z,79.98
2023-04-19T01:44:03.399Z,80.42
2023-04-19T01:47:06.357Z,80.40
2023-04-19T01:50:09.993Z,79.93
2023-04-19T01:53:14.093Z,79.87
2023-04-19T01:56:16.642Z,80.02
2023-04-19T01:59:19.341Z,80.38
2023-04-19T02:02:22.144Z,80.71
2023-04-19T02:05:24.942Z,80.27
2023-04-19T02:08:29.159Z,81.03
2023-04-19T02:11:31.884Z,81.05
2023-04-19T02:14:34.538Z,80.02
2023-04-19T02:17:37.169Z,79.82
2023-04-19T02:20:39.902Z,80.64
2023-04-19T02:23:43.901Z,80.07
2023-04-19T02:26:46.537Z,80.28
2023-04-19T02:29:49.131Z,80.31
2023-04-19T02:32:51.795Z,80.57
2023-04-19T02:35:54.434Z,80.31
2023-04-19T02:38:59.268Z,80.58
2023-04-19T02:42:02.261Z,80.37
2023-04-19T02:45:05.716Z,81.05
2023-04-19T02:48:08.367Z,80.41
2023-04-19T02:51:16.420Z,80.95
2023-04-19T02:54:20.451Z,81.61
2023-04-19T02:57:23.339Z,81.28
2023-04-19T03:00:25.954Z,81.38
2023-04-19T03:03:28.663Z,81.53
2023-04-19T03:06:31.970Z,81.23
2023-04-19T03:09:35.967Z,80.87
2023-04-19T03:12:38.556Z,80.83
2023-04-19T03:15:41.166Z,81.22
2023-04-19T03:18:43.824Z,80.88
2023-04-19T03:21:46.906Z,81.20
2023-04-19T03:24:50.944Z,80.77
2023-04-19T03:27:53.529Z,80.37
2023-04-19T03:30:56.161Z,81.37
2023-04-19T03:33:58.833Z,80.87
2023-04-19T03:37:01.507Z,81.00
2023-04-19T03:40:06.024Z,81.34
2023-04-19T03:43:08.602Z,81.48
2023-04-19T03:46:11.297Z,82.06
2023-04-19T03:49:13.914Z,80.98
2023-04-19T03:52:16.564Z,80.94
2023-04-19T03:55:20.797Z,81.83
2023-04-19T03:58:23.804Z,81.93
2023-04-19T04:01:27.176Z,81.93
2023-04-19T04:04:29.973Z,82.27
2023-04-19T04:07:32.715Z,82.21
2023-04-19T04:10:36.674Z,82.11
2023-04-19T04:13:39.278Z,81.49
2023-04-19T04:16:42.340Z,81.52
2023-04-19T04:19:45.123Z,82.21
2023-04-19T04:22:47.725Z,81.94
2023-04-19T04:26:00.628Z,82.24
2023-04-19T04:29:03.669Z,82.82
2023-04-19T04:32:10.525Z,82.19
2023-04-19T04:35:13.383Z,82.75
2023-04-19T04:38:24.178Z,82.34
2023-04-19T04:41:31.593Z,82.16
2023-04-19T04:44:34.828Z,82.59
2023-04-19T04:47:37.655Z,81.96
2023-04-19T04:50:40.568Z,82.08
2023-04-19T04:53:43.263Z,82.48
2023-04-19T04:56:47.259Z,82.37
2023-04-19T04:59:49.918Z,81.83
2023-04-19T05:02:53.116Z,81.89
2023-04-19T05:05:56.313Z,82.02
2023-04-19T05:08:58.966Z,82.02
2023-04-19T05:12:02.919Z,82.13
2023-04-19T05:15:06.413Z,81.66
2023-04-19T05:18:09.050Z,82.42
2023-04-19T05:21:11.667Z,81.62
2023-04-19T05:24:14.596Z,82.18
2023-04-19T05:27:18.898Z,82.07
2023-04-19T05:30:21.677Z,81.64
2023-04-19T05:33:24.339Z,81.71
2023-04-19T05:36:28.153Z,81.37
2023-04-19T05:39:30.763Z,81.02
2023-04-19T05:42:34.937Z,80.49
2023-04-19T05:45:37.577Z,81.14
2023-04-19T05:48:40.140Z,81.46
2023-04-19T05:51:42.738Z,80.77
2023-04-19T05:54:45.349Z,80.63
2023-04-19T05:57:49.333Z,80.55
2023-04-19T06:00:52.580Z,81.18
2023-04-19T06:03:55.850Z,81.09
2023-04-19T06:06:58.748Z,81.08
2023-04-19T06:10:01.665Z,80.69
2023-04-19T06:13:06.073Z,80.27
2023-04-19T06:16:09.620Z,80.08
2023-04-19T06:19:12.221Z,79.48
2023-04-19T06:22:15.155Z,80.03
2023-04-19T06:25:17.809Z,79.97
2023-04-19T06:28:21.922Z,79.94
2023-04-19T06:31:24.859Z,79.65
2023-04-19T06:34:27.517Z,79.14
2023-04-19T06:37:30.168Z,78.07
2023-04-19T06:40:32.885Z,78.33
2023-04-19T06:43:36.909Z,79.24
2023-04-19T06:46:39.902Z,78.46
2023-04-19T06:49:42.498Z,78.96
2023-04-19T06:52:45.151Z,76.89
2023-04-19T06:55:48.057Z,78.26
2023-04-19T06:58:52.152Z,77.55
2023-04-19T07:01:56.848Z,77.07
2023-04-19T07:04:59.754Z,76.30
2023-04-19T07:08:02.479Z,75.89
2023-04-19T07:11:06.714Z,76.26
2023-04-19T07:14:11.666Z,76.05
2023-04-19T07:17:14.824Z,75.58
2023-04-19T07:20:17.463Z,74.67
2023-04-19T07:23:20.203Z,75.05
2023-04-19T07:26:22.895Z,73.86
2023-04-19T07:29:26.976Z,74.04
2023-04-19T07:32:29.629Z,73.90
2023-04-19T07:35:32.334Z,73.21
2023-04-19T07:38:34.947Z,72.44
2023-04-19T07:41:37.537Z,71.74
2023-04-19T07:44:41.458Z,71.37
2023-04-19T07:47:44.069Z,71.50
2023-04-19T07:50:46.778Z,71.40
2023-04-19T07:53:49.356Z,70.81
2023-04-19T07:56:51.960Z,70.38
2023-04-19T07:59:59.147Z,69.31
2023-04-19T08:03:01.900Z,68.54
2023-04-19T08:06:07.165Z,68.31
2023-04-19T08:09:09.945Z,65.70
2023-04-19T08:12:17.168Z,67.61
2023-04-19T08:16:03.442Z,68.12
2023-04-19T08:18:53.072Z,67.31
2023-04-19T08:21:55.713Z,66.34
2023-04-19T08:24:58.344Z,67.07
2023-04-19T08:28:01.000Z,67.89
2023-04-19T08:31:08.230Z,65.33
2023-04-19T08:34:11.084Z,65.78
2023-04-19T08:37:13.690Z,68.00
2023-04-19T08:40:16.960Z,66.15
2023-04-19T08:43:20.708Z,65.61
2023-04-19T08:46:24.990Z,67.97
2023-04-19T08:49:28.810Z,68.74
2023-04-19T08:52:37.229Z,67.82
2023-04-19T08:55:54.874Z,68.36
2023-04-19T08:59:17.993Z,69.80
2023-04-19T09:02:22.782Z,70.21
2023-04-19T09:05:25.795Z,70.24
2023-04-19T09:08:30.339Z,70.86
2023-04-19T09:11:38.738Z,72.70
2023-04-19T09:14:59.847Z,72.18
2023-04-19T09:18:07.228Z,72.06
2023-04-19T09:21:09.888Z,72.22
2023-04-19T09:24:12.685Z,71.93
2023-04-19T09:27:20.100Z,71.56
2023-04-19T09:30:31.423Z,72.54
2023-04-19T09:33:39.859Z,72.14
2023-04-19T09:36:43.271Z,70.93
2023-04-19T09:39:45.965Z,70.61
2023-04-19T09:45:54.121Z,71.63
2023-04-19T09:49:25.062Z,69.49
2023-04-19T09:52:39.941Z,67.57
2023-04-19T09:55:57.083Z,67.05
2023-04-19T09:59:20.211Z,66.50
2023-04-19T10:02:25.497Z,65.83
2023-04-19T10:05:30.280Z,65.46
2023-04-19T10:08:33.685Z,65.16
2023-04-19T10:11:38.919Z,65.70
2023-04-19T10:14:41.917Z,66.04
2023-04-19T10:17:44.915Z,65.24
2023-04-19T10:20:56.401Z,66.04
2023-04-19T10:24:00.408Z,65.98
2023-04-19T10:27:12.242Z,66.51
2023-04-19T10:30:20.683Z,65.58
2023-04-19T10:33:28.175Z,65.72
2023-04-19T10:36:33.780Z,67.17
2023-04-19T10:39:44.155Z,68.02
2023-04-19T10:43:18.153Z,68.69
2023-04-19T10:46:39.830Z,68.04
2023-04-19T10:49:46.846Z,68.01
2023-04-19T10:52:50.875Z,68.77
2023-04-19T10:55:53.530Z,70.20
2023-04-19T10:59:21.887Z,70.37
2023-04-19T11:02:29.156Z,70.17
2023-04-19T11:05:52.029Z,71.00
2023-04-19T11:08:56.179Z,68.85
2023-04-19T11:12:00.789Z,68.44
2023-04-19T11:15:03.405Z,69.23
2023-04-19T11:18:12.417Z,68.93
2023-04-19T11:21:18.784Z,69.21
2023-04-19T11:24:25.177Z,70.56
2023-04-19T11:27:28.783Z,70.62
2023-04-19T11:30:33.630Z,72.34
2023-04-19T11:33:37.034Z,73.09
2023-04-19T11:36:49.014Z,73.36
2023-04-19T11:39:53.230Z,74.00
2023-04-19T11:42:57.837Z,74.20
2023-04-19T11:46:07.041Z,73.91
2023-04-19T11:49:09.975Z,75.12
2023-04-19T11:52:13.097Z,76.96
2023-04-19T11:55:21.360Z,78.67
2023-04-19T11:58:29.907Z,80.10
2023-04-19T12:01:32.844Z,81.45
2023-04-19T12:04:36.177Z,82.87
2023-04-19T12:07:39.372Z,82.70
2023-04-19T12:10:57.097Z,83.69
2023-04-19T12:14:09.838Z,83.10
2023-04-19T12:17:14.014Z,83.39
2023-04-19T12:20:30.211Z,84.58
2023-04-19T12:23:33.161Z,84.83
2023-04-19T12:26:37.827Z,83.59
2023-04-19T12:29:40.755Z,83.62
2023-04-19T12:32:43.715Z,83.60
2023-04-19T12:35:46.529Z,82.95
2023-04-19T12:38:49.194Z,82.85
2023-04-19T12:41:53.376Z,83.22
2023-04-19T12:44:56.106Z,82.87
2023-04-19T12:47:58.914Z,82.64
2023-04-19T12:51:01.813Z,82.24
2023-04-19T12:54:07.428Z,82.56
2023-04-19T12:57:11.524Z,82.88
2023-04-19T13:00:14.950Z,81.13
2023-04-19T13:03:17.783Z,81.91
2023-04-19T13:06:20.883Z,82.53
2023-04-19T13:09:23.664Z,81.71
2023-04-19T13:12:28.026Z,81.61
2023-04-19T13:15:30.882Z,81.95
2023-04-19T13:18:33.695Z,82.05
2023-04-19T13:21:36.973Z,82.16
2023-04-19T13:24:39.853Z,80.90
2023-04-19T13:27:43.964Z,78.89
2023-04-19T13:30:46.625Z,80.14
2023-04-19T13:33:49.367Z,80.13
2023-04-19T13:36:52.143Z,79.96
2023-04-19T13:40:03.895Z,79.57
2023-04-19T13:43:15.139Z,79.72
2023-04-19T13:46:18.053Z,78.45
2023-04-19T13:49:20.802Z,78.83
2023-04-19T13:52:23.687Z,80.10
2023-04-19T13:55:28.112Z,78.64
2023-04-19T13:58:32.174Z,77.83
2023-04-19T14:01:35.000Z,77.90
2023-04-19T14:04:37.793Z,78.63
2023-04-19T14:07:41.520Z,78.04
2023-04-19T14:10:44.180Z,77.67
2023-04-19T14:13:49.324Z,76.05
2023-04-19T14:16:52.224Z,74.49
2023-04-19T14:19:55.183Z,75.29
2023-04-19T14:22:59.108Z,75.35
2023-04-19T14:26:01.889Z,74.84
2023-04-19T14:29:06.672Z,73.69
2023-04-19T14:32:24.065Z,72.40
2023-04-19T14:35:27.529Z,72.10
2023-04-19T14:38:30.308Z,71.72
2023-04-19T14:41:33.121Z,70.86
2023-04-19T14:44:37.615Z,70.60
2023-04-19T14:47:40.482Z,70.91
2023-04-19T14:50:43.260Z,71.53
2023-04-19T14:53:46.260Z,70.24
2023-04-19T14:56:49.015Z,69.57
2023-04-19T14:59:57.875Z,68.70
2023-04-19T15:03:01.294Z,71.12
2023-04-19T15:06:05.090Z,71.46
2023-04-19T15:09:07.964Z,72.45
2023-04-19T15:12:10.781Z,72.53
2023-04-19T15:15:14.885Z,73.28
2023-04-19T15:18:17.688Z,74.62
2023-04-19T15:21:23.014Z,74.30
2023-04-19T15:24:27.339Z,73.88
2023-04-19T15:27:30.221Z,74.08
2023-04-19T15:30:34.392Z,73.85
2023-04-19T15:33:38.003Z,74.04
2023-04-19T15:36:41.321Z,73.08
2023-04-19T15:39:44.542Z,72.92
2023-04-19T15:42:47.320Z,73.23
2023-04-19T15:45:52.085Z,71.46
2023-04-19T15:48:54.747Z,70.11
2023-04-19T15:51:57.464Z,70.00
2023-04-19T15:55:00.253Z,70.25
2023-04-19T15:58:04.544Z,70.70
2023-04-19T16:01:12.575Z,70.83
2023-04-19T16:04:15.515Z,70.60
2023-04-19T16:07:18.297Z,69.76
2023-04-19T16:10:21.271Z,69.80
2023-04-19T16:13:24.171Z,68.81
2023-04-19T16:16:31.313Z,69.38
2023-04-19T16:19:34.167Z,68.82
2023-04-19T16:22:36.927Z,67.49
2023-04-19T16:25:41.380Z,65.59
2023-04-19T16:28:44.061Z,65.01
2023-04-19T16:31:50.499Z,64.91
2023-04-19T16:34:54.939Z,65.33
2023-04-19T16:37:58.018Z,64.12
2023-04-19T16:41:02.202Z,64.35
2023-04-19T16:44:05.696Z,64.50
2023-04-19T16:47:09.941Z,63.45
2023-04-19T16:50:13.177Z,63.85
2023-04-19T16:53:16.024Z,63.26
2023-04-19T16:56:19.434Z,63.04
2023-04-19T16:59:22.249Z,61.51
2023-04-19T17:02:26.554Z,56.32
2023-04-19T17:05:29.552Z,60.18
2023-04-19T17:08:32.228Z,64.08
2023-04-19T17:11:34.938Z,67.24
2023-04-19T17:14:37.715Z,67.80
2023-04-19T17:17:42.769Z,69.73
2023-04-19T17:20:45.696Z,60.31
2023-04-19T17:23:48.391Z,55.84
2023-04-19T17:26:51.174Z,52.54
2023-04-19T17:29:54.308Z,48.55
2023-04-19T17:32:58.596Z,48.51
2023-04-19T17:36:01.346Z,46.66
2023-04-19T17:39:05.549Z,46.98
2023-04-19T17:42:08.393Z,45.59
2023-04-19T17:45:12.029Z,48.83
2023-04-19T17:48:16.167Z,44.81
2023-04-19T17:51:19.006Z,47.53
2023-04-19T17:54:21.679Z,47.47
2023-04-19T17:57:24.627Z,45.83
2023-04-19T18:00:27.421Z,45.47
2023-04-19T18:03:32.528Z,45.67
2023-04-19T18:06:35.480Z,47.22
2023-04-19T18:09:38.154Z,47.46
2023-04-19T18:12:41.059Z,47.10
2023-04-19T18:15:43.883Z,48.62
2023-04-19T18:18:48.073Z,49.45
2023-04-19T18:21:50.897Z,48.82
2023-04-19T18:24:53.786Z,47.66
2023-04-19T18:27:56.708Z,47.07
2023-04-19T18:30:59.417Z,45.99
2023-04-19T18:34:03.786Z,47.61
2023-04-19T18:37:16.174Z,47.76
2023-04-19T18:40:19.365Z,46.01
2023-04-19T18:43:22.205Z,45.75
2023-04-19T18:46:24.940Z,46.60
2023-04-19T18:49:29.036Z,45.22
2023-04-19T18:52:31.752Z,46.36
2023-04-19T18:55:34.655Z,45.96
2023-04-19T18:58:37.324Z,47.29
2023-04-19T19:01:40.167Z,47.08
2023-04-19T19:07:52.993Z,47.59
2023-04-19T19:14:01.768Z,47.42
2023-04-19T19:17:06.044Z,48.59
2023-04-19T19:20:11.315Z,49.14
2023-04-19T19:23:14.591Z,48.13
2023-04-19T19:26:17.446Z,48.69
2023-04-19T19:32:24.945Z,51.00
2023-04-19T19:35:29.142Z,50.93
2023-04-19T19:38:31.772Z,51.30
2023-04-19T19:44:40.697Z,52.74
2023-04-19T19:47:45.762Z,53.37
2023-04-19T19:53:57.221Z,54.55
2023-04-19T19:57:56.581Z,54.73
2023-04-19T20:00:43.809Z,56.09
2023-04-19T20:03:46.364Z,55.94
2023-04-19T20:09:57.328Z,56.74
2023-04-19T20:13:01.430Z,57.27
2023-04-19T20:16:04.392Z,58.69
2023-04-19T20:19:09.831Z,58.37
2023-04-19T20:22:14.324Z,58.05
2023-04-19T20:25:17.518Z,57.76
2023-04-19T20:28:20.240Z,56.95
2023-04-19T20:31:24.009Z,56.79
2023-04-19T20:34:26.939Z,57.04
2023-04-19T20:37:31.015Z,57.84
2023-04-19T20:40:33.778Z,58.67
2023-04-19T20:43:36.477Z,58.94
2023-04-19T20:46:39.122Z,59.05
2023-04-19T20:49:42.071Z,60.31
2023-04-19T20:52:46.393Z,60.95
2023-04-19T20:55:49.225Z,61.64
2023-04-19T20:58:52.089Z,61.75
2023-04-19T21:01:54.828Z,62.19
2023-04-19T21:04:57.558Z,62.48
2023-04-19T21:08:01.778Z,63.02
2023-04-19T21:11:04.677Z,63.84
2023-04-19T21:14:07.412Z,63.60
2023-04-19T21:17:10.450Z,63.68
2023-04-19T21:20:14.601Z,64.34
2023-04-19T21:23:18.861Z,64.60
2023-04-19T21:26:22.191Z,64.95
2023-04-19T21:29:25.091Z,65.31
2023-04-19T21:32:28.703Z,65.31
2023-04-19T21:35:31.416Z,64.58
2023-04-19T21:38:36.192Z,64.75
2023-04-19T21:41:39.030Z,66.01
2023-04-19T21:44:41.885Z,65.75
2023-04-19T21:47:44.583Z,65.91
2023-04-19T21:50:47.261Z,65.97
2023-04-19T21:53:51.385Z,66.42
2023-04-19T21:56:54.085Z,66.62
2023-04-19T21:59:56.767Z,67.06
2023-04-19T22:02:59.567Z,67.06
2023-04-19T22:06:02.765Z,66.77
2023-04-19T22:09:06.901Z,66.80
2023-04-19T22:12:11.831Z,67.00
2023-04-19T22:15:14.975Z,67.28
2023-04-19T22:18:17.660Z,67.22
2023-04-19T22:21:21.032Z,67.28
2023-04-19T22:24:25.176Z,67.01
2023-04-19T22:27:27.818Z,67.96
2023-04-19T22:30:30.963Z,67.45
2023-04-19T22:33:33.746Z,67.69
2023-04-19T22:36:36.561Z,67.05
2023-04-19T22:39:40.728Z,67.49
2023-04-19T22:42:43.589Z,68.39
2023-04-19T22:45:48.015Z,68.71
2023-04-19T22:48:50.983Z,68.04
2023-04-19T22:51:54.426Z,68.39
2023-04-19T22:54:58.577Z,67.12
2023-04-19T22:58:01.293Z,67.90
2023-04-19T23:01:04.277Z,68.78
2023-04-19T23:04:07.156Z,68.66
2023-04-19T23:07:10.003Z,68.85
2023-04-19T23:10:14.841Z,68.84
2023-04-19T23:13:17.791Z,69.62
2023-04-19T23:16:20.812Z,70.01
2023-04-19T23:19:23.623Z,69.82
2023-04-19T23:22:26.492Z,69.69
2023-04-19T23:25:30.600Z,68.82
2023-04-19T23:28:33.434Z,69.96
2023-04-19T23:31:36.306Z,69.73
2023-04-19T23:34:39.100Z,70.45
2023-04-19T23:37:42.033Z,69.98
2023-04-19T23:40:46.497Z,70.84
2023-04-19T23:43:49.380Z,70.12
2023-04-19T23:46:52.137Z,70.25
2023-04-19T23:49:55.157Z,70.89
2023-04-19T23:52:57.929Z,70.45
2023-04-19T23:56:02.004Z,71.70
2023-04-19T23:59:04.893Z,71.52
